sensor_id;sensor_type;location;lat;lon;timestamp;pressure;altitude;pressure_sealevel;temperature
24201;BMP280;2801;50.972;7.856;2024-03-02T00:00:39;96246.94;;;5.40
24201;BMP280;2801;50.972;7.856;2024-03-02T00:03:07;96242.41;;;5.41
24201;BMP280;2801;50.972;7.856;2024-03-02T00:05:36;96239.75;;;5.41
24201;BMP280;2801;50.972;7.856;2024-03-02T00:08:05;96238.03;;;5.45
24201;BMP280;2801;50.972;7.856;2024-03-02T00:10:40;96237.53;;;5.43
24201;BMP280;2801;50.972;7.856;2024-03-02T00:13:08;96231.16;;;5.44
24201;BMP280;2801;50.972;7.856;2024-03-02T00:15:54;96222.09;;;5.36
24201;BMP280;2801;50.972;7.856;2024-03-02T00:18:35;96223.41;;;5.30
24201;BMP280;2801;50.972;7.856;2024-03-02T00:21:05;96241.03;;;5.35
24201;BMP280;2801;50.972;7.856;2024-03-02T00:23:34;96239.03;;;5.32
24201;BMP280;2801;50.972;7.856;2024-03-02T00:26:02;96243.53;;;5.31
24201;BMP280;2801;50.972;7.856;2024-03-02T00:28:35;96232.75;;;5.28
24201;BMP280;2801;50.972;7.856;2024-03-02T00:31:07;96237.16;;;5.24
24201;BMP280;2801;50.972;7.856;2024-03-02T00:36:06;96253.28;;;5.19
24201;BMP280;2801;50.972;7.856;2024-03-02T00:38:35;96254.50;;;5.21
24201;BMP280;2801;50.972;7.856;2024-03-02T00:41:15;96244.03;;;5.25
24201;BMP280;2801;50.972;7.856;2024-03-02T00:44:04;96248.06;;;5.31
24201;BMP280;2801;50.972;7.856;2024-03-02T00:46:43;96241.69;;;5.32
24201;BMP280;2801;50.972;7.856;2024-03-02T00:51:39;96240.19;;;5.43
24201;BMP280;2801;50.972;7.856;2024-03-02T00:54:09;96241.16;;;5.47
24201;BMP280;2801;50.972;7.856;2024-03-02T00:56:36;96244.84;;;5.54
24201;BMP280;2801;50.972;7.856;2024-03-02T00:59:03;96238.44;;;5.55
24201;BMP280;2801;50.972;7.856;2024-03-02T01:01:30;96247.59;;;5.66
24201;BMP280;2801;50.972;7.856;2024-03-02T01:03:57;96244.44;;;5.73
24201;BMP280;2801;50.972;7.856;2024-03-02T01:06:24;96238.97;;;5.78
24201;BMP280;2801;50.972;7.856;2024-03-02T01:08:51;96239.91;;;5.82
24201;BMP280;2801;50.972;7.856;2024-03-02T01:11:20;96240.34;;;5.84
24201;BMP280;2801;50.972;7.856;2024-03-02T01:13:51;96240.50;;;5.87
24201;BMP280;2801;50.972;7.856;2024-03-02T01:16:19;96237.66;;;5.92
24201;BMP280;2801;50.972;7.856;2024-03-02T01:18:46;96232.78;;;5.94
24201;BMP280;2801;50.972;7.856;2024-03-02T01:21:15;96232.28;;;6.01
24201;BMP280;2801;50.972;7.856;2024-03-02T01:23:42;96217.44;;;6.00
24201;BMP280;2801;50.972;7.856;2024-03-02T01:26:09;96216.59;;;6.08
24201;BMP280;2801;50.972;7.856;2024-03-02T01:28:36;96203.94;;;6.05
24201;BMP280;2801;50.972;7.856;2024-03-02T01:31:03;96206.84;;;6.12
24201;BMP280;2801;50.972;7.856;2024-03-02T01:33:30;96192.66;;;6.08
24201;BMP280;2801;50.972;7.856;2024-03-02T01:35:57;96185.41;;;6.08
24201;BMP280;2801;50.972;7.856;2024-03-02T01:38:24;96185.25;;;6.13
24201;BMP280;2801;50.972;7.856;2024-03-02T01:40:51;96182.25;;;6.15
24201;BMP280;2801;50.972;7.856;2024-03-02T01:43:18;96182.25;;;6.15
24201;BMP280;2801;50.972;7.856;2024-03-02T01:45:45;96177.63;;;6.24
24201;BMP280;2801;50.972;7.856;2024-03-02T01:48:12;96178.22;;;6.29
24201;BMP280;2801;50.972;7.856;2024-03-02T01:50:40;96178.81;;;6.35
24201;BMP280;2801;50.972;7.856;2024-03-02T01:53:09;96184.25;;;6.38
24201;BMP280;2801;50.972;7.856;2024-03-02T01:55:36;96168.94;;;6.35
24201;BMP280;2801;50.972;7.856;2024-03-02T01:58:03;96171.25;;;6.37
24201;BMP280;2801;50.972;7.856;2024-03-02T02:00:31;96168.47;;;6.33
24201;BMP280;2801;50.972;7.856;2024-03-02T02:02:59;96169.13;;;6.30
24201;BMP280;2801;50.972;7.856;2024-03-02T02:05:26;96166.78;;;6.29
24201;BMP280;2801;50.972;7.856;2024-03-02T02:07:53;96158.69;;;6.25
24201;BMP280;2801;50.972;7.856;2024-03-02T02:10:20;96164.81;;;6.26
24201;BMP280;2801;50.972;7.856;2024-03-02T02:12:47;96155.88;;;6.22
24201;BMP280;2801;50.972;7.856;2024-03-02T02:15:28;96152.53;;;6.13
24201;BMP280;2801;50.972;7.856;2024-03-02T02:17:58;96148.19;;;6.08
24201;BMP280;2801;50.972;7.856;2024-03-02T02:20:26;96151.50;;;6.05
24201;BMP280;2801;50.972;7.856;2024-03-02T02:23:03;96140.88;;;6.05
24201;BMP280;2801;50.972;7.856;2024-03-02T02:25:32;96144.56;;;6.13
24201;BMP280;2801;50.972;7.856;2024-03-02T02:27:59;96147.00;;;6.18
24201;BMP280;2801;50.972;7.856;2024-03-02T02:30:30;96144.50;;;6.21
24201;BMP280;2801;50.972;7.856;2024-03-02T02:32:58;96133.63;;;6.26
24201;BMP280;2801;50.972;7.856;2024-03-02T02:35:26;96134.84;;;6.29
24201;BMP280;2801;50.972;7.856;2024-03-02T02:37:55;96134.28;;;6.23
24201;BMP280;2801;50.972;7.856;2024-03-02T02:40:23;96124.97;;;6.17
24201;BMP280;2801;50.972;7.856;2024-03-02T02:42:50;96131.56;;;6.11
24201;BMP280;2801;50.972;7.856;2024-03-02T02:45:21;96131.31;;;6.04
24201;BMP280;2801;50.972;7.856;2024-03-02T02:47:49;96117.00;;;5.97
24201;BMP280;2801;50.972;7.856;2024-03-02T02:50:17;96136.59;;;5.92
24201;BMP280;2801;50.972;7.856;2024-03-02T02:52:44;96131.00;;;5.85
24201;BMP280;2801;50.972;7.856;2024-03-02T02:55:13;96134.66;;;5.81
24201;BMP280;2801;50.972;7.856;2024-03-02T02:57:42;96141.69;;;5.77
24201;BMP280;2801;50.972;7.856;2024-03-02T03:00:13;96130.59;;;5.75
24201;BMP280;2801;50.972;7.856;2024-03-02T03:02:48;96142.81;;;5.67
24201;BMP280;2801;50.972;7.856;2024-03-02T03:05:18;96138.22;;;5.56
24201;BMP280;2801;50.972;7.856;2024-03-02T03:07:45;96142.91;;;5.59
24201;BMP280;2801;50.972;7.856;2024-03-02T03:10:12;96141.31;;;5.58
24201;BMP280;2801;50.972;7.856;2024-03-02T03:12:42;96150.63;;;5.43
24201;BMP280;2801;50.972;7.856;2024-03-02T03:15:11;96142.34;;;5.45
24201;BMP280;2801;50.972;7.856;2024-03-02T03:17:38;96160.34;;;5.39
24201;BMP280;2801;50.972;7.856;2024-03-02T03:20:06;96156.97;;;5.30
24201;BMP280;2801;50.972;7.856;2024-03-02T03:22:38;96154.34;;;5.22
24201;BMP280;2801;50.972;7.856;2024-03-02T03:25:06;96156.72;;;5.15
24201;BMP280;2801;50.972;7.856;2024-03-02T03:27:35;96156.28;;;5.13
24201;BMP280;2801;50.972;7.856;2024-03-02T03:30:03;96154.25;;;5.10
24201;BMP280;2801;50.972;7.856;2024-03-02T03:32:30;96146.13;;;5.06
24201;BMP280;2801;50.972;7.856;2024-03-02T03:34:57;96150.38;;;4.99
24201;BMP280;2801;50.972;7.856;2024-03-02T03:37:24;96137.44;;;4.97
24201;BMP280;2801;50.972;7.856;2024-03-02T03:39:52;96143.53;;;4.98
24201;BMP280;2801;50.972;7.856;2024-03-02T03:42:19;96146.81;;;4.95
24201;BMP280;2801;50.972;7.856;2024-03-02T03:44:46;96155.69;;;4.99
24201;BMP280;2801;50.972;7.856;2024-03-02T03:47:13;96156.97;;;4.93
24201;BMP280;2801;50.972;7.856;2024-03-02T03:49:40;96156.97;;;4.93
24201;BMP280;2801;50.972;7.856;2024-03-02T03:52:07;96156.97;;;4.93
24201;BMP280;2801;50.972;7.856;2024-03-02T03:54:34;96152.13;;;4.95
24201;BMP280;2801;50.972;7.856;2024-03-02T03:57:01;96165.72;;;4.93
24201;BMP280;2801;50.972;7.856;2024-03-02T03:59:28;96167.59;;;4.93
24201;BMP280;2801;50.972;7.856;2024-03-02T04:01:55;96161.03;;;4.90
24201;BMP280;2801;50.972;7.856;2024-03-02T04:04:22;96159.31;;;4.86
24201;BMP280;2801;50.972;7.856;2024-03-02T04:06:49;96167.94;;;4.83
24201;BMP280;2801;50.972;7.856;2024-03-02T04:09:16;96169.81;;;4.82
24201;BMP280;2801;50.972;7.856;2024-03-02T04:11:43;96169.94;;;4.86
24201;BMP280;2801;50.972;7.856;2024-03-02T04:14:10;96173.38;;;4.86
24201;BMP280;2801;50.972;7.856;2024-03-02T04:16:37;96183.50;;;4.93
24201;BMP280;2801;50.972;7.856;2024-03-02T04:19:04;96181.47;;;4.98
24201;BMP280;2801;50.972;7.856;2024-03-02T04:21:31;96180.03;;;5.01
24201;BMP280;2801;50.972;7.856;2024-03-02T04:23:59;96173.91;;;5.09
24201;BMP280;2801;50.972;7.856;2024-03-02T04:26:26;96179.53;;;5.16
24201;BMP280;2801;50.972;7.856;2024-03-02T04:28:54;96173.72;;;5.22
24201;BMP280;2801;50.972;7.856;2024-03-02T04:31:21;96170.09;;;5.27
24201;BMP280;2801;50.972;7.856;2024-03-02T04:33:48;96173.69;;;5.31
24201;BMP280;2801;50.972;7.856;2024-03-02T04:36:15;96171.81;;;5.31
24201;BMP280;2801;50.972;7.856;2024-03-02T04:38:42;96181.03;;;5.25
24201;BMP280;2801;50.972;7.856;2024-03-02T04:41:09;96181.09;;;5.17
24201;BMP280;2801;50.972;7.856;2024-03-02T04:43:36;96186.44;;;5.08
24201;BMP280;2801;50.972;7.856;2024-03-02T04:46:05;96182.88;;;5.04
24201;BMP280;2801;50.972;7.856;2024-03-02T04:48:33;96177.38;;;5.01
24201;BMP280;2801;50.972;7.856;2024-03-02T04:51:00;96175.06;;;4.99
24201;BMP280;2801;50.972;7.856;2024-03-02T04:53:27;96171.34;;;4.92
24201;BMP280;2801;50.972;7.856;2024-03-02T04:55:54;96168.41;;;4.85
24201;BMP280;2801;50.972;7.856;2024-03-02T04:58:39;96179.81;;;4.77
24201;BMP280;2801;50.972;7.856;2024-03-02T05:01:06;96177.97;;;4.69
24201;BMP280;2801;50.972;7.856;2024-03-02T05:03:33;96190.31;;;4.65
24201;BMP280;2801;50.972;7.856;2024-03-02T05:06:01;96193.28;;;4.63
24201;BMP280;2801;50.972;7.856;2024-03-02T05:08:28;96188.59;;;4.60
24201;BMP280;2801;50.972;7.856;2024-03-02T05:10:55;96187.66;;;4.56
24201;BMP280;2801;50.972;7.856;2024-03-02T05:13:42;96189.69;;;4.51
24201;BMP280;2801;50.972;7.856;2024-03-02T05:16:09;96197.34;;;4.52
24201;BMP280;2801;50.972;7.856;2024-03-02T05:18:37;96193.09;;;4.60
24201;BMP280;2801;50.972;7.856;2024-03-02T05:21:05;96196.41;;;4.57
24201;BMP280;2801;50.972;7.856;2024-03-02T05:23:31;96196.88;;;4.59
24201;BMP280;2801;50.972;7.856;2024-03-02T05:25:58;96205.75;;;4.54
24201;BMP280;2801;50.972;7.856;2024-03-02T05:28:26;96209.06;;;4.51
24201;BMP280;2801;50.972;7.856;2024-03-02T05:30:52;96213.13;;;4.49
24201;BMP280;2801;50.972;7.856;2024-03-02T05:33:19;96223.75;;;4.49
24201;BMP280;2801;50.972;7.856;2024-03-02T05:35:49;96213.59;;;4.51
24201;BMP280;2801;50.972;7.856;2024-03-02T05:38:19;96231.69;;;4.57
24201;BMP280;2801;50.972;7.856;2024-03-02T05:40:45;96224.50;;;4.58
24201;BMP280;2801;50.972;7.856;2024-03-02T05:43:12;96224.19;;;4.59
24201;BMP280;2801;50.972;7.856;2024-03-02T05:45:40;96228.09;;;4.62
24201;BMP280;2801;50.972;7.856;2024-03-02T05:48:07;96228.84;;;4.71
24201;BMP280;2801;50.972;7.856;2024-03-02T05:50:35;96231.34;;;4.76
24201;BMP280;2801;50.972;7.856;2024-03-02T05:53:03;96229.63;;;4.80
24201;BMP280;2801;50.972;7.856;2024-03-02T05:55:30;96228.66;;;4.84
24201;BMP280;2801;50.972;7.856;2024-03-02T05:57:57;96224.28;;;4.88
24201;BMP280;2801;50.972;7.856;2024-03-02T06:00:33;96220.56;;;4.89
24201;BMP280;2801;50.972;7.856;2024-03-02T06:03:00;96226.63;;;4.90
24201;BMP280;2801;50.972;7.856;2024-03-02T06:05:27;96232.53;;;4.95
24201;BMP280;2801;50.972;7.856;2024-03-02T06:07:54;96241.44;;;4.99
24201;BMP280;2801;50.972;7.856;2024-03-02T06:10:21;96240.81;;;5.02
24201;BMP280;2801;50.972;7.856;2024-03-02T06:12:48;96233.13;;;5.09
24201;BMP280;2801;50.972;7.856;2024-03-02T06:15:15;96236.28;;;5.11
24201;BMP280;2801;50.972;7.856;2024-03-02T06:17:42;96241.72;;;5.15
24201;BMP280;2801;50.972;7.856;2024-03-02T06:20:09;96231.38;;;5.22
24201;BMP280;2801;50.972;7.856;2024-03-02T06:22:37;96234.84;;;5.22
24201;BMP280;2801;50.972;7.856;2024-03-02T06:25:04;96237.75;;;5.29
24201;BMP280;2801;50.972;7.856;2024-03-02T06:27:31;96240.09;;;5.31
24201;BMP280;2801;50.972;7.856;2024-03-02T06:29:58;96246.38;;;5.26
24201;BMP280;2801;50.972;7.856;2024-03-02T06:32:25;96248.25;;;5.26
24201;BMP280;2801;50.972;7.856;2024-03-02T06:34:52;96250.59;;;5.27
24201;BMP280;2801;50.972;7.856;2024-03-02T06:37:19;96258.38;;;5.32
24201;BMP280;2801;50.972;7.856;2024-03-02T06:39:46;96251.97;;;5.33
24201;BMP280;2801;50.972;7.856;2024-03-02T06:42:13;96261.81;;;5.41
24201;BMP280;2801;50.972;7.856;2024-03-02T06:44:40;96264.13;;;5.43
24201;BMP280;2801;50.972;7.856;2024-03-02T06:47:07;96268.03;;;5.45
24201;BMP280;2801;50.972;7.856;2024-03-02T06:49:34;96265.19;;;5.50
24201;BMP280;2801;50.972;7.856;2024-03-02T06:52:02;96264.56;;;5.53
24201;BMP280;2801;50.972;7.856;2024-03-02T06:54:29;96267.66;;;5.55
24201;BMP280;2801;50.972;7.856;2024-03-02T06:56:56;96263.09;;;5.64
24201;BMP280;2801;50.972;7.856;2024-03-02T06:59:23;96267.13;;;5.70
24201;BMP280;2801;50.972;7.856;2024-03-02T07:01:51;96267.41;;;5.77
24201;BMP280;2801;50.972;7.856;2024-03-02T07:04:18;96271.50;;;5.83
24201;BMP280;2801;50.972;7.856;2024-03-02T07:06:45;96275.19;;;5.91
24201;BMP280;2801;50.972;7.856;2024-03-02T07:09:12;96275.16;;;5.99
24201;BMP280;2801;50.972;7.856;2024-03-02T07:11:39;96278.84;;;6.07
24201;BMP280;2801;50.972;7.856;2024-03-02T07:14:06;96276.47;;;6.14
24201;BMP280;2801;50.972;7.856;2024-03-02T07:16:33;96273.75;;;6.22
24201;BMP280;2801;50.972;7.856;2024-03-02T07:19:01;96262.28;;;6.30
24201;BMP280;2801;50.972;7.856;2024-03-02T07:21:29;96254.75;;;6.32
24201;BMP280;2801;50.972;7.856;2024-03-02T07:23:56;96266.91;;;6.42
24201;BMP280;2801;50.972;7.856;2024-03-02T07:26:23;96259.59;;;6.51
24201;BMP280;2801;50.972;7.856;2024-03-02T07:28:53;96256.25;;;6.62
24201;BMP280;2801;50.972;7.856;2024-03-02T07:31:20;96254.56;;;6.90
24201;BMP280;2801;50.972;7.856;2024-03-02T07:33:47;96256.47;;;7.34
24201;BMP280;2801;50.972;7.856;2024-03-02T07:36:14;96251.72;;;7.76
24201;BMP280;2801;50.972;7.856;2024-03-02T07:38:43;96254.59;;;7.95
24201;BMP280;2801;50.972;7.856;2024-03-02T07:41:11;96257.50;;;8.26
24201;BMP280;2801;50.972;7.856;2024-03-02T07:43:38;96260.22;;;8.42
24201;BMP280;2801;50.972;7.856;2024-03-02T07:46:06;96266.97;;;8.63
24201;BMP280;2801;50.972;7.856;2024-03-02T07:48:33;96262.91;;;8.81
24201;BMP280;2801;50.972;7.856;2024-03-02T07:51:00;96259.09;;;9.10
24201;BMP280;2801;50.972;7.856;2024-03-02T07:53:29;96260.06;;;9.17
24201;BMP280;2801;50.972;7.856;2024-03-02T07:55:56;96259.28;;;9.17
24201;BMP280;2801;50.972;7.856;2024-03-02T07:58:29;96263.41;;;9.14
24201;BMP280;2801;50.972;7.856;2024-03-02T08:00:57;96261.19;;;9.32
24201;BMP280;2801;50.972;7.856;2024-03-02T08:03:24;96273.63;;;9.40
24201;BMP280;2801;50.972;7.856;2024-03-02T08:05:51;96273.28;;;9.41
24201;BMP280;2801;50.972;7.856;2024-03-02T08:08:19;96270.03;;;9.63
24201;BMP280;2801;50.972;7.856;2024-03-02T08:10:46;96276.31;;;9.86
24201;BMP280;2801;50.972;7.856;2024-03-02T08:13:13;96283.56;;;10.01
24201;BMP280;2801;50.972;7.856;2024-03-02T08:15:40;96278.94;;;10.14
24201;BMP280;2801;50.972;7.856;2024-03-02T08:18:08;96294.59;;;10.31
24201;BMP280;2801;50.972;7.856;2024-03-02T08:20:35;96288.34;;;10.58
24201;BMP280;2801;50.972;7.856;2024-03-02T08:23:02;96287.38;;;11.04
24201;BMP280;2801;50.972;7.856;2024-03-02T08:25:29;96285.84;;;11.45
24201;BMP280;2801;50.972;7.856;2024-03-02T08:27:56;96273.38;;;11.56
24201;BMP280;2801;50.972;7.856;2024-03-02T08:30:24;96271.75;;;11.51
24201;BMP280;2801;50.972;7.856;2024-03-02T08:32:51;96273.13;;;11.42
24201;BMP280;2801;50.972;7.856;2024-03-02T08:35:18;96281.50;;;11.17
24201;BMP280;2801;50.972;7.856;2024-03-02T08:37:45;96281.31;;;10.88
24201;BMP280;2801;50.972;7.856;2024-03-02T08:40:13;96279.72;;;10.68
24201;BMP280;2801;50.972;7.856;2024-03-02T08:42:44;96281.84;;;10.59
24201;BMP280;2801;50.972;7.856;2024-03-02T08:45:12;96285.09;;;10.68
24201;BMP280;2801;50.972;7.856;2024-03-02T08:47:39;96288.72;;;10.75
24201;BMP280;2801;50.972;7.856;2024-03-02T08:50:07;96288.91;;;10.86
24201;BMP280;2801;50.972;7.856;2024-03-02T08:52:35;96290.69;;;10.97
24201;BMP280;2801;50.972;7.856;2024-03-02T08:55:02;96292.31;;;11.02
24201;BMP280;2801;50.972;7.856;2024-03-02T08:57:30;96296.53;;;11.22
24201;BMP280;2801;50.972;7.856;2024-03-02T08:59:57;96289.81;;;11.73
24201;BMP280;2801;50.972;7.856;2024-03-02T09:02:25;96294.19;;;12.04
24201;BMP280;2801;50.972;7.856;2024-03-02T09:04:52;96286.44;;;12.25
24201;BMP280;2801;50.972;7.856;2024-03-02T09:07:19;96282.44;;;12.41
24201;BMP280;2801;50.972;7.856;2024-03-02T09:09:46;96291.22;;;12.64
24201;BMP280;2801;50.972;7.856;2024-03-02T09:12:13;96289.97;;;13.14
24201;BMP280;2801;50.972;7.856;2024-03-02T09:14:41;96276.22;;;13.55
24201;BMP280;2801;50.972;7.856;2024-03-02T09:17:08;96282.78;;;13.61
24201;BMP280;2801;50.972;7.856;2024-03-02T09:19:38;96274.28;;;13.56
24201;BMP280;2801;50.972;7.856;2024-03-02T09:22:05;96285.69;;;13.42
24201;BMP280;2801;50.972;7.856;2024-03-02T09:24:32;96283.72;;;13.39
24201;BMP280;2801;50.972;7.856;2024-03-02T09:27:02;96290.41;;;13.19
24201;BMP280;2801;50.972;7.856;2024-03-02T09:29:29;96289.28;;;12.91
24201;BMP280;2801;50.972;7.856;2024-03-02T09:31:56;96294.97;;;12.56
24201;BMP280;2801;50.972;7.856;2024-03-02T09:34:23;96290.97;;;12.21
24201;BMP280;2801;50.972;7.856;2024-03-02T09:36:53;96280.56;;;11.93
24201;BMP280;2801;50.972;7.856;2024-03-02T09:39:20;96292.88;;;11.72
24201;BMP280;2801;50.972;7.856;2024-03-02T09:41:48;96286.13;;;12.04
24201;BMP280;2801;50.972;7.856;2024-03-02T09:44:15;96286.22;;;12.63
24201;BMP280;2801;50.972;7.856;2024-03-02T09:46:42;96277.06;;;13.30
24201;BMP280;2801;50.972;7.856;2024-03-02T09:49:11;96270.19;;;13.69
24201;BMP280;2801;50.972;7.856;2024-03-02T09:51:39;96267.50;;;13.69
24201;BMP280;2801;50.972;7.856;2024-03-02T09:54:08;96262.84;;;13.69
24201;BMP280;2801;50.972;7.856;2024-03-02T09:56:47;96258.72;;;13.79
24201;BMP280;2801;50.972;7.856;2024-03-02T09:59:14;96258.28;;;13.73
24201;BMP280;2801;50.972;7.856;2024-03-02T10:02:01;96258.03;;;13.45
24201;BMP280;2801;50.972;7.856;2024-03-02T10:04:30;96253.38;;;13.42
24201;BMP280;2801;50.972;7.856;2024-03-02T10:07:15;96253.09;;;13.54
24201;BMP280;2801;50.972;7.856;2024-03-02T10:09:45;96245.81;;;13.55
24201;BMP280;2801;50.972;7.856;2024-03-02T10:12:16;96248.88;;;13.53
24201;BMP280;2801;50.972;7.856;2024-03-02T10:14:44;96245.81;;;13.58
24201;BMP280;2801;50.972;7.856;2024-03-02T10:17:13;96240.50;;;13.62
24201;BMP280;2801;50.972;7.856;2024-03-02T10:19:40;96243.69;;;13.74
24201;BMP280;2801;50.972;7.856;2024-03-02T10:22:09;96245.59;;;13.77
24201;BMP280;2801;50.972;7.856;2024-03-02T10:24:43;96240.59;;;13.76
24201;BMP280;2801;50.972;7.856;2024-03-02T10:27:23;96239.25;;;13.96
24201;BMP280;2801;50.972;7.856;2024-03-02T10:29:50;96239.06;;;14.22
24201;BMP280;2801;50.972;7.856;2024-03-02T10:32:17;96240.72;;;14.37
24201;BMP280;2801;50.972;7.856;2024-03-02T10:34:45;96229.56;;;14.38
24201;BMP280;2801;50.972;7.856;2024-03-02T10:37:15;96233.13;;;14.06
24201;BMP280;2801;50.972;7.856;2024-03-02T10:39:42;96230.38;;;13.95
24201;BMP280;2801;50.972;7.856;2024-03-02T10:42:09;96237.72;;;13.98
24201;BMP280;2801;50.972;7.856;2024-03-02T10:44:37;96229.63;;;13.95
24201;BMP280;2801;50.972;7.856;2024-03-02T10:47:05;96236.94;;;13.98
24201;BMP280;2801;50.972;7.856;2024-03-02T10:49:33;96231.22;;;14.06
24201;BMP280;2801;50.972;7.856;2024-03-02T10:52:00;96227.06;;;14.16
24201;BMP280;2801;50.972;7.856;2024-03-02T10:54:28;96217.16;;;14.30
24201;BMP280;2801;50.972;7.856;2024-03-02T10:57:07;96219.19;;;14.51
24201;BMP280;2801;50.972;7.856;2024-03-02T10:59:37;96223.22;;;14.78
24201;BMP280;2801;50.972;7.856;2024-03-02T11:02:13;96220.59;;;15.03
24201;BMP280;2801;50.972;7.856;2024-03-02T11:04:41;96211.78;;;15.20
24201;BMP280;2801;50.972;7.856;2024-03-02T11:07:13;96212.94;;;15.19
24201;BMP280;2801;50.972;7.856;2024-03-02T11:10:01;96222.00;;;14.75
24201;BMP280;2801;50.972;7.856;2024-03-02T11:12:53;96213.50;;;14.70
24201;BMP280;2801;50.972;7.856;2024-03-02T11:15:25;96217.81;;;14.85
24201;BMP280;2801;50.972;7.856;2024-03-02T11:17:54;96222.88;;;14.90
24201;BMP280;2801;50.972;7.856;2024-03-02T11:20:22;96217.03;;;14.81
24201;BMP280;2801;50.972;7.856;2024-03-02T11:22:50;96220.84;;;14.73
24201;BMP280;2801;50.972;7.856;2024-03-02T11:25:24;96231.31;;;14.85
24201;BMP280;2801;50.972;7.856;2024-03-02T11:33:07;96207.41;;;14.77
24201;BMP280;2801;50.972;7.856;2024-03-02T11:35:45;96211.19;;;14.65
24201;BMP280;2801;50.972;7.856;2024-03-02T11:38:17;96207.38;;;14.73
24201;BMP280;2801;50.972;7.856;2024-03-02T11:40:45;96210.13;;;14.84
24201;BMP280;2801;50.972;7.856;2024-03-02T11:43:12;96204.00;;;15.01
24201;BMP280;2801;50.972;7.856;2024-03-02T11:45:43;96201.72;;;15.13
24201;BMP280;2801;50.972;7.856;2024-03-02T11:48:15;96212.16;;;15.25
24201;BMP280;2801;50.972;7.856;2024-03-02T11:50:49;96207.16;;;15.20
24201;BMP280;2801;50.972;7.856;2024-03-02T11:53:19;96209.47;;;15.29
24201;BMP280;2801;50.972;7.856;2024-03-02T11:55:47;96203.31;;;15.32
24201;BMP280;2801;50.972;7.856;2024-03-02T11:58:15;96215.28;;;15.27
24201;BMP280;2801;50.972;7.856;2024-03-02T12:00:52;96224.50;;;15.23
24201;BMP280;2801;50.972;7.856;2024-03-02T12:03:22;96209.47;;;15.25
24201;BMP280;2801;50.972;7.856;2024-03-02T12:05:50;96202.19;;;15.36
24201;BMP280;2801;50.972;7.856;2024-03-02T12:08:18;96203.34;;;15.49
24201;BMP280;2801;50.972;7.856;2024-03-02T12:11:00;96199.47;;;15.40
24201;BMP280;2801;50.972;7.856;2024-03-02T12:13:30;96210.59;;;15.14
24201;BMP280;2801;50.972;7.856;2024-03-02T12:15:57;96207.41;;;14.77
24201;BMP280;2801;50.972;7.856;2024-03-02T12:18:25;96205.41;;;14.63
24201;BMP280;2801;50.972;7.856;2024-03-02T12:20:53;96201.16;;;14.58
24201;BMP280;2801;50.972;7.856;2024-03-02T12:23:23;96206.13;;;14.53
24201;BMP280;2801;50.972;7.856;2024-03-02T12:25:51;96206.16;;;14.60
24201;BMP280;2801;50.972;7.856;2024-03-02T12:28:19;96201.91;;;14.52
24201;BMP280;2801;50.972;7.856;2024-03-02T12:30:46;96199.94;;;14.52
24201;BMP280;2801;50.972;7.856;2024-03-02T12:33:17;96196.59;;;14.80
24201;BMP280;2801;50.972;7.856;2024-03-02T12:35:45;96190.13;;;14.92
24201;BMP280;2801;50.972;7.856;2024-03-02T12:38:12;96180.44;;;14.80
24201;BMP280;2801;50.972;7.856;2024-03-02T12:40:40;96175.00;;;14.69
24201;BMP280;2801;50.972;7.856;2024-03-02T12:43:07;96187.81;;;14.97
24201;BMP280;2801;50.972;7.856;2024-03-02T12:45:35;96182.09;;;15.16
24201;BMP280;2801;50.972;7.856;2024-03-02T12:48:04;96183.25;;;15.19
24201;BMP280;2801;50.972;7.856;2024-03-02T12:50:31;96176.31;;;15.28
24201;BMP280;2801;50.972;7.856;2024-03-02T12:52:58;96178.28;;;15.38
24201;BMP280;2801;50.972;7.856;2024-03-02T12:55:26;96176.75;;;15.51
24201;BMP280;2801;50.972;7.856;2024-03-02T12:57:53;96168.63;;;15.37
24201;BMP280;2801;50.972;7.856;2024-03-02T13:00:21;96166.72;;;15.38
24201;BMP280;2801;50.972;7.856;2024-03-02T13:02:50;96162.84;;;15.46
24201;BMP280;2801;50.972;7.856;2024-03-02T13:05:19;96164.34;;;15.29
24201;BMP280;2801;50.972;7.856;2024-03-02T13:07:48;96158.56;;;15.31
24201;BMP280;2801;50.972;7.856;2024-03-02T13:10:16;96165.94;;;15.41
24201;BMP280;2801;50.972;7.856;2024-03-02T13:12:45;96157.06;;;15.40
24201;BMP280;2801;50.972;7.856;2024-03-02T13:15:12;96155.16;;;15.41
24201;BMP280;2801;50.972;7.856;2024-03-02T13:17:45;96155.53;;;15.39
24201;BMP280;2801;50.972;7.856;2024-03-02T13:20:15;96158.63;;;15.38
24201;BMP280;2801;50.972;7.856;2024-03-02T13:22:44;96158.94;;;15.15
24201;BMP280;2801;50.972;7.856;2024-03-02T13:25:11;96164.34;;;15.22
24201;BMP280;2801;50.972;7.856;2024-03-02T13:27:39;96166.28;;;15.22
24201;BMP280;2801;50.972;7.856;2024-03-02T13:30:07;96152.78;;;15.25
24201;BMP280;2801;50.972;7.856;2024-03-02T13:32:36;96161.59;;;15.05
24201;BMP280;2801;50.972;7.856;2024-03-02T13:35:03;96157.34;;;14.86
24201;BMP280;2801;50.972;7.856;2024-03-02T13:37:31;96152.34;;;15.06
24201;BMP280;2801;50.972;7.856;2024-03-02T13:39:57;96155.47;;;15.22
24201;BMP280;2801;50.972;7.856;2024-03-02T13:42:25;96150.47;;;15.20
24201;BMP280;2801;50.972;7.856;2024-03-02T13:44:52;96141.19;;;15.14
24201;BMP280;2801;50.972;7.856;2024-03-02T13:47:19;96137.38;;;15.33
24201;BMP280;2801;50.972;7.856;2024-03-02T13:49:48;96125.03;;;15.39
24201;BMP280;2801;50.972;7.856;2024-03-02T13:52:16;96122.72;;;15.55
24201;BMP280;2801;50.972;7.856;2024-03-02T13:54:47;96129.69;;;15.59
24201;BMP280;2801;50.972;7.856;2024-03-02T13:57:15;96123.88;;;15.47
24201;BMP280;2801;50.972;7.856;2024-03-02T13:59:42;96133.56;;;15.41
24201;BMP280;2801;50.972;7.856;2024-03-02T14:02:11;96128.91;;;15.38
24201;BMP280;2801;50.972;7.856;2024-03-02T14:04:39;96136.25;;;15.41
24201;BMP280;2801;50.972;7.856;2024-03-02T14:07:07;96126.97;;;15.31
24201;BMP280;2801;50.972;7.856;2024-03-02T14:09:34;96125.03;;;15.49
24201;BMP280;2801;50.972;7.856;2024-03-02T14:12:02;96136.63;;;15.53
24201;BMP280;2801;50.972;7.856;2024-03-02T14:14:29;96121.19;;;15.71
24201;BMP280;2801;50.972;7.856;2024-03-02T14:16:57;96116.53;;;15.75
24201;BMP280;2801;50.972;7.856;2024-03-02T14:19:30;96118.88;;;15.66
24201;BMP280;2801;50.972;7.856;2024-03-02T14:21:58;96106.53;;;15.65
24201;BMP280;2801;50.972;7.856;2024-03-02T14:24:26;96104.22;;;15.57
24201;BMP280;2801;50.972;7.856;2024-03-02T14:26:55;96110.00;;;15.48
24201;BMP280;2801;50.972;7.856;2024-03-02T14:29:36;96103.81;;;15.37
24201;BMP280;2801;50.972;7.856;2024-03-02T14:32:05;96108.06;;;15.24
24201;BMP280;2801;50.972;7.856;2024-03-02T14:34:32;96100.69;;;14.97
24201;BMP280;2801;50.972;7.856;2024-03-02T14:37:02;96094.88;;;14.95
24201;BMP280;2801;50.972;7.856;2024-03-02T14:39:32;96098.75;;;14.90
24201;BMP280;2801;50.972;7.856;2024-03-02T14:42:01;96098.72;;;14.79
24201;BMP280;2801;50.972;7.856;2024-03-02T14:44:29;96093.31;;;14.79
24201;BMP280;2801;50.972;7.856;2024-03-02T14:46:56;96093.31;;;14.65